Time;durP1;ratioP1;P1;durP2;ratioP2;P2;SDS_P1;SDS_P2;PMS_P1;PMS_P2;Temp;Humidity;BMP_temperature;BMP_pressure;BME280_temperature;BME280_humidity;BME280_pressure;Samples;Min_cycle;Max_cycle;Signal;HPM_P1;HPM_P2
2022/01/22 00:01:55;;;;;;;16.63;2.08;;;7.10;99.90;;;;;;4969818;28;20046;-87
2022/01/22 00:04:21;;;;;;;13.20;2.13;;;7.10;99.90;;;;;;4952197;28;20042;-87
2022/01/22 00:06:51;;;;;;;20.53;2.20;;;7.10;99.90;;;;;;4964220;28;20046;-86
2022/01/22 00:09:17;;;;;;;15.25;2.00;;;7.10;99.90;;;;;;4965009;28;20960;-86
2022/01/22 00:11:51;;;;;;;16.40;2.28;;;7.10;99.90;;;;;;4969266;28;20027;-85
2022/01/22 00:14:23;;;;;;;16.48;2.03;;;7.10;99.90;;;;;;4949416;28;20518;-87
2022/01/22 00:16:53;;;;;;;12.45;2.20;;;7.10;99.90;;;;;;4952084;28;20058;-86
2022/01/22 00:19:19;;;;;;;17.73;1.98;;;7.10;99.90;;;;;;4946868;28;20055;-87
2022/01/22 00:22:00;;;;;;;11.60;1.60;;;7.10;99.90;;;;;;4972632;28;20170;-87
2022/01/22 00:24:26;;;;;;;9.90;2.03;;;7.10;99.90;;;;;;4968815;28;20941;-87
2022/01/22 00:26:51;;;;;;;13.13;1.83;;;7.10;99.90;;;;;;4966231;28;20043;-87
2022/01/22 00:29:17;;;;;;;16.07;1.73;;;7.10;99.90;;;;;;4970950;28;20058;-86
2022/01/22 00:31:45;;;;;;;15.47;1.90;;;7.00;99.90;;;;;;4967597;28;20584;-86
2022/01/22 00:34:11;;;;;;;18.73;2.03;;;7.10;99.90;;;;;;4966133;28;20487;-86
2022/01/22 00:36:38;;;;;;;9.93;1.57;;;7.00;99.90;;;;;;4968389;28;20043;-87
2022/01/22 00:39:19;;;;;;;;;;;7.10;99.90;;;;;;4968778;28;20087;-87
2022/01/22 00:42:01;;;;;;;10.35;1.52;;;7.20;99.90;;;;;;4968563;28;19929;-87
2022/01/22 00:44:27;;;;;;;11.20;2.33;;;7.10;99.90;;;;;;4949663;28;20050;-86
2022/01/22 00:46:53;;;;;;;10.57;1.60;;;7.10;99.90;;;;;;4958386;28;20583;-87
2022/01/22 00:49:19;;;;;;;10.50;1.50;;;7.10;99.90;;;;;;4970859;28;20038;-88
2022/01/22 00:51:45;;;;;;;13.00;1.73;;;7.00;99.90;;;;;;4969635;28;20042;-86
2022/01/22 00:54:19;;;;;;;12.87;1.70;;;7.10;99.90;;;;;;4955126;28;20635;-89
2022/01/22 00:56:54;;;;;;;9.73;1.45;;;7.00;99.90;;;;;;4947425;28;20656;-86
2022/01/22 00:59:20;;;;;;;14.55;2.25;;;7.00;99.90;;;;;;4950870;28;20046;-86
2022/01/22 01:01:45;;;;;;;13.13;1.70;;;7.00;99.90;;;;;;4966397;28;20045;-86
2022/01/22 01:04:11;;;;;;;16.33;1.40;;;7.00;99.90;;;;;;4968400;28;20050;-86
2022/01/22 01:06:38;;;;;;;8.77;2.15;;;7.00;99.90;;;;;;4964666;28;20476;-85
2022/01/22 01:09:06;;;;;;;10.82;1.50;;;7.00;99.90;;;;;;4952581;28;20058;-87
2022/01/22 01:11:35;;;;;;;14.32;1.92;;;6.90;99.90;;;;;;4949507;28;20038;-86
2022/01/22 01:14:03;;;;;;;12.57;1.77;;;6.90;99.90;;;;;;4952110;28;20502;-87
2022/01/22 01:32:57;;;;;;;13.07;1.63;;;6.90;99.90;;;;;;4960152;28;20083;-87
2022/01/22 01:35:25;;;;;;;7.22;0.93;;;6.90;99.90;;;;;;4952510;28;20035;-86
2022/01/22 01:37:52;;;;;;;8.43;1.48;;;6.90;99.90;;;;;;4969690;28;20137;-87
2022/01/22 01:40:21;;;;;;;9.00;1.05;;;6.90;99.90;;;;;;4960846;28;20039;-88
2022/01/22 01:43:03;;;;;;;4.50;0.90;;;6.90;99.90;;;;;;4949787;28;20043;-89
2022/01/22 01:45:29;;;;;;;11.35;1.20;;;6.90;99.90;;;;;;4971619;28;20601;-86
2022/01/22 01:47:57;;;;;;;14.38;1.13;;;6.90;99.90;;;;;;4977599;28;20043;-89
2022/01/22 01:50:23;;;;;;;10.95;1.02;;;6.90;99.90;;;;;;4977621;28;20045;-89
2022/01/22 01:53:04;;;;;;;4.80;0.80;;;6.90;99.90;;;;;;4980315;28;20042;-86
2022/01/22 01:55:50;;;;;;;6.55;0.82;;;6.90;99.90;;;;;;4969263;28;20154;-89
2022/01/22 01:58:17;;;;;;;6.07;1.05;;;6.90;99.90;;;;;;4956395;28;20027;-85
2022/01/22 02:00:43;;;;;;;5.75;1.00;;;6.90;99.90;;;;;;4975465;28;20031;-87
2022/01/22 02:03:11;;;;;;;8.55;1.35;;;6.90;99.90;;;;;;4968497;28;20035;-85
2022/01/22 02:05:38;;;;;;;10.32;1.30;;;6.90;99.90;;;;;;4973291;28;20509;-84
2022/01/22 02:08:03;;;;;;;;;;;6.90;99.90;;;;;;4991693;28;20074;-84
2022/01/22 02:10:36;;;;;;;11.85;1.27;;;6.90;99.90;;;;;;4976868;28;20517;-83
2022/01/22 02:24:00;;;;;;;3.30;0.90;;;6.80;99.90;;;;;;4973792;28;20160;-86
2022/01/22 02:26:27;;;;;;;6.07;1.02;;;6.90;99.90;;;;;;4971754;28;20062;-86
2022/01/22 02:28:53;;;;;;;10.95;1.02;;;6.80;99.90;;;;;;4966946;28;20438;-86
2022/01/22 02:34:27;;;;;;;10.05;0.95;;;6.90;99.90;;;;;;4972302;28;20460;-85
2022/01/22 02:37:06;;;;;;;4.30;0.90;;;6.80;99.90;;;;;;4948080;28;20114;-85
2022/01/22 02:39:38;;;;;;;8.50;1.00;;;6.90;99.90;;;;;;4957249;28;20082;-86
2022/01/22 02:42:05;;;;;;;8.38;1.10;;;6.80;99.90;;;;;;4967616;28;20051;-86
2022/01/22 02:44:35;;;;;;;6.95;1.23;;;6.90;99.90;;;;;;4953696;28;20039;-83
2022/01/22 02:47:04;;;;;;;4.10;0.75;;;6.90;99.90;;;;;;4955741;28;20062;-86
2022/01/22 02:49:30;;;;;;;5.47;1.10;;;6.90;99.90;;;;;;4967290;28;20389;-86
2022/01/22 02:52:07;;;;;;;7.90;1.20;;;6.90;99.90;;;;;;4955547;28;20046;-85
2022/01/22 02:54:33;;;;;;;;;;;6.80;99.90;;;;;;4954085;28;20074;-84
2022/01/22 02:59:49;;;;;;;3.85;0.73;;;6.80;99.90;;;;;;4980469;28;20081;-67
2022/01/22 03:02:15;;;;;;;7.60;0.60;;;6.80;99.90;;;;;;4975762;28;20064;-66
2022/01/22 03:04:41;;;;;;;6.10;0.65;;;6.80;99.90;;;;;;4978060;28;20368;-66
2022/01/22 03:07:08;;;;;;;6.60;0.60;;;6.80;99.90;;;;;;4958865;28;20050;-66
2022/01/22 03:09:40;;;;;;;7.90;0.73;;;6.80;99.90;;;;;;4955976;28;20075;-67
2022/01/22 03:17:50;;;;;;;3.83;0.65;;;6.90;99.90;;;;;;4968446;28;20372;-68
2022/01/22 03:27:58;;;;;;;3.03;1.02;;;6.80;99.90;;;;;;4960678;28;20111;-69
2022/01/22 03:30:24;;;;;;;5.90;0.80;;;6.80;99.90;;;;;;4946920;28;20150;-69
2022/01/22 03:32:53;;;;;;;8.77;0.85;;;6.70;99.90;;;;;;4961188;28;20403;-69
2022/01/22 03:37:53;;;;;;;15.00;1.67;;;6.80;99.90;;;;;;4945342;28;20105;-69
2022/01/22 03:40:21;;;;;;;6.75;0.50;;;6.80;99.90;;;;;;4947215;28;20282;-70
2022/01/22 03:42:47;;;;;;;9.05;1.00;;;6.80;99.90;;;;;;4968707;28;20407;-69
2022/01/22 03:45:13;;;;;;;4.75;0.73;;;6.80;99.90;;;;;;4964307;28;20043;-67
2022/01/22 03:47:39;;;;;;;9.97;1.00;;;6.80;99.90;;;;;;4959515;28;20035;-67
2022/01/22 03:50:07;;;;;;;9.38;1.23;;;6.80;99.90;;;;;;4959689;28;20042;-69
2022/01/22 03:52:33;;;;;;;6.22;0.80;;;6.70;99.90;;;;;;4946190;28;20126;-68
2022/01/22 03:54:59;;;;;;;2.70;1.20;;;6.80;99.90;;;;;;4966002;28;20137;-67
2022/01/22 03:57:25;;;;;;;10.60;1.00;;;6.80;99.90;;;;;;4957408;28;20126;-67
2022/01/22 03:59:53;;;;;;;2.95;1.13;;;6.80;99.90;;;;;;4965533;28;20543;-68
2022/01/22 04:05:04;;;;;;;7.90;1.30;;;6.80;99.90;;;;;;4956302;28;20727;-69
2022/01/22 04:10:13;;;;;;;7.13;0.60;;;6.80;99.90;;;;;;4974456;28;20043;-69
2022/01/22 04:12:57;;;;;;;2.42;0.57;;;6.80;99.90;;;;;;4961725;28;20035;-69
2022/01/22 04:15:26;;;;;;;2.28;0.65;;;6.80;99.90;;;;;;4951526;28;20795;-69
2022/01/22 04:26:22;;;;;;;4.00;0.68;;;6.80;99.90;;;;;;4973115;28;20050;-70
2022/01/22 04:28:47;;;;;;;3.08;0.80;;;6.80;99.90;;;;;;4966164;28;20405;-69
2022/01/22 04:31:13;;;;;;;1.80;0.63;;;6.80;99.90;;;;;;4973646;28;20061;-69
2022/01/22 04:33:39;;;;;;;12.87;1.43;;;6.70;99.90;;;;;;4959246;28;20492;-69
2022/01/22 04:36:05;;;;;;;13.50;1.73;;;6.80;99.90;;;;;;4947156;28;20039;-69
2022/01/22 04:38:30;;;;;;;7.50;1.23;;;6.80;99.90;;;;;;4940605;28;21274;-67
2022/01/22 04:40:56;;;;;;;4.80;1.20;;;6.80;99.90;;;;;;4941794;28;20504;-67
2022/01/22 04:43:22;;;;;;;6.30;1.20;;;6.70;99.90;;;;;;4966194;28;20492;-68
2022/01/22 04:49:08;;;;;;;3.50;1.08;;;6.70;99.90;;;;;;4966924;28;20050;-68
2022/01/22 04:56:49;;;;;;;4.68;0.93;;;6.70;99.90;;;;;;4963959;28;20610;-67
2022/01/22 04:59:15;;;;;;;3.87;0.87;;;6.70;99.90;;;;;;4940252;28;20142;-69
2022/01/22 05:01:40;;;;;;;5.63;1.30;;;6.70;99.90;;;;;;4939185;28;20854;-67
2022/01/22 05:04:06;;;;;;;4.13;1.07;;;6.60;99.90;;;;;;4967029;28;20027;-67
2022/01/22 05:06:31;;;;;;;8.57;1.43;;;6.70;99.90;;;;;;4961680;28;20042;-66
2022/01/22 05:08:57;;;;;;;6.67;1.00;;;6.60;99.90;;;;;;4947285;28;20511;-67
2022/01/22 05:11:24;;;;;;;11.43;1.20;;;6.70;99.90;;;;;;4962180;28;20062;-67
2022/01/22 05:13:50;;;;;;;;;;;6.70;99.90;;;;;;4967580;28;20611;-66
2022/01/22 05:16:16;;;;;;;7.50;0.70;;;6.60;99.90;;;;;;4960303;28;20002;-66
2022/01/22 05:18:51;;;;;;;5.03;0.77;;;6.60;99.90;;;;;;4946198;28;20046;-68
2022/01/22 05:21:18;;;;;;;8.55;1.27;;;6.60;99.90;;;;;;4967437;28;20043;-67
2022/01/22 05:23:45;;;;;;;5.50;0.93;;;6.60;99.90;;;;;;4954410;28;20521;-67
2022/01/22 05:26:31;;;;;;;5.35;0.88;;;6.60;99.90;;;;;;4964003;28;20066;-67
2022/01/22 05:29:15;;;;;;;4.90;1.38;;;6.70;99.90;;;;;;4967441;28;20054;-67
2022/01/22 05:32:05;;;;;;;2.85;0.40;;;6.70;99.90;;;;;;4940985;28;20055;-67
2022/01/22 05:37:12;;;;;;;4.60;0.60;;;6.70;99.90;;;;;;4968368;28;20411;-67
2022/01/22 05:39:38;;;;;;;4.32;0.63;;;6.70;99.90;;;;;;4964612;28;20057;-67
2022/01/22 05:42:05;;;;;;;4.00;1.05;;;6.60;99.90;;;;;;4944592;28;20535;-67
2022/01/22 05:44:32;;;;;;;4.20;0.82;;;6.70;99.90;;;;;;4946223;28;20047;-67
2022/01/22 05:47:03;;;;;;;8.85;0.98;;;6.70;99.90;;;;;;4960345;28;20043;-67
2022/01/22 05:49:31;;;;;;;4.20;0.70;;;6.70;99.90;;;;;;4945971;28;20043;-67
2022/01/22 05:51:59;;;;;;;2.15;0.55;;;6.70;99.90;;;;;;4961870;28;20043;-66
2022/01/22 05:54:49;;;;;;;6.25;1.15;;;6.70;99.90;;;;;;4944599;28;20078;-67
2022/01/22 05:59:59;;;;;;;8.23;1.40;;;6.70;99.90;;;;;;4962470;28;20042;-67
2022/01/22 06:02:25;;;;;;;2.70;0.93;;;6.70;99.90;;;;;;4948689;28;20061;-67
2022/01/22 06:04:50;;;;;;;7.10;1.17;;;6.70;99.90;;;;;;4958757;28;20043;-69
2022/01/22 06:07:16;;;;;;;3.97;0.80;;;6.70;99.90;;;;;;4946346;28;20049;-68
2022/01/22 06:10:26;;;;;;;4.60;0.93;;;6.70;99.90;;;;;;4967545;28;20047;-69
2022/01/22 06:12:44;;;;;;;5.65;1.40;;;6.60;99.90;;;;;;4952000;28;20146;-69
2022/01/22 06:15:10;;;;;;;3.33;0.80;;;6.60;99.90;;;;;;4964657;28;20094;-69
2022/01/22 06:17:36;;;;;;;;;;;6.60;99.90;;;;;;4963578;28;20061;-69
2022/01/22 06:20:02;;;;;;;7.13;1.60;;;6.70;99.90;;;;;;4969474;28;22156;-68
2022/01/22 06:22:28;;;;;;;13.30;1.52;;;6.70;99.90;;;;;;4962084;28;20050;-69
2022/01/22 06:24:53;;;;;;;3.13;1.57;;;6.60;99.90;;;;;;4963113;28;20295;-68
2022/01/22 06:27:20;;;;;;;2.80;0.70;;;6.70;99.90;;;;;;4928471;29;20031;-68
2022/01/22 06:29:45;;;;;;;8.63;1.27;;;6.60;99.90;;;;;;4945337;28;20097;-68
2022/01/22 06:32:13;;;;;;;4.70;1.10;;;6.60;99.90;;;;;;4961029;28;20038;-67
2022/01/22 06:34:39;;;;;;;6.57;0.95;;;6.60;99.90;;;;;;4966221;28;20034;-67
2022/01/22 06:37:04;;;;;;;6.13;1.10;;;6.60;99.90;;;;;;4969347;28;20054;-66
2022/01/22 06:39:40;;;;;;;4.47;0.80;;;6.50;99.90;;;;;;4950752;28;20061;-66
2022/01/22 06:42:06;;;;;;;4.90;0.80;;;6.50;99.90;;;;;;4973963;28;20383;-67
2022/01/22 06:44:34;;;;;;;10.37;1.27;;;6.50;99.90;;;;;;4948438;28;20064;-67
2022/01/22 06:47:00;;;;;;;3.55;0.90;;;6.50;99.90;;;;;;4969335;28;20074;-67
2022/01/22 06:49:25;;;;;;;4.13;0.88;;;6.50;99.90;;;;;;4972947;28;20537;-67
2022/01/22 06:51:54;;;;;;;6.43;1.30;;;6.50;99.90;;;;;;4979656;28;20141;-67
2022/01/22 06:54:21;;;;;;;4.00;1.08;;;6.50;99.90;;;;;;4948515;28;20082;-67
2022/01/22 06:56:47;;;;;;;5.30;0.75;;;6.40;99.90;;;;;;4960701;28;20436;-67
2022/01/22 06:59:13;;;;;;;6.20;0.93;;;6.50;99.90;;;;;;4975514;28;20030;-67
2022/01/22 07:01:40;;;;;;;4.05;0.65;;;6.40;99.90;;;;;;4967260;28;20093;-67
2022/01/22 07:04:06;;;;;;;;;;;6.40;99.90;;;;;;4969260;28;20397;-67
2022/01/22 07:06:32;;;;;;;2.80;0.93;;;6.40;99.90;;;;;;4964035;28;19918;-66
2022/01/22 07:08:57;;;;;;;3.57;0.90;;;6.40;99.90;;;;;;4965782;28;20431;-66
2022/01/22 07:11:23;;;;;;;5.47;0.80;;;6.40;99.90;;;;;;4947715;28;20192;-67
2022/01/22 07:13:50;;;;;;;8.63;1.33;;;6.40;99.90;;;;;;4956713;28;20050;-66
2022/01/22 07:16:15;;;;;;;4.35;0.55;;;6.30;99.90;;;;;;4954708;28;20047;-67
2022/01/22 07:18:43;;;;;;;3.47;0.97;;;6.30;99.90;;;;;;4961250;28;20732;-67
2022/01/22 07:21:15;;;;;;;4.18;0.70;;;6.40;99.90;;;;;;4964989;28;20043;-67
2022/01/22 07:26:12;;;;;;;5.10;0.60;;;6.40;99.90;;;;;;4968271;28;20050;-67
2022/01/22 07:28:39;;;;;;;11.17;0.97;;;6.40;99.90;;;;;;4966551;28;20043;-66
2022/01/22 07:31:05;;;;;;;2.92;0.80;;;6.30;99.90;;;;;;4967700;28;20439;-66
2022/01/22 07:33:31;;;;;;;3.90;0.70;;;6.30;99.90;;;;;;4961360;28;20039;-66
2022/01/22 07:35:57;;;;;;;3.03;0.83;;;6.30;99.90;;;;;;4964271;28;20377;-67
2022/01/22 07:38:22;;;;;;;5.87;1.07;;;6.30;99.90;;;;;;4960584;28;20065;-66
2022/01/22 07:40:48;;;;;;;7.57;1.23;;;6.30;99.90;;;;;;4957936;28;20051;-67
2022/01/22 07:43:17;;;;;;;5.60;1.23;;;6.30;99.90;;;;;;4962856;28;20513;-66
2022/01/22 07:45:43;;;;;;;6.28;1.77;;;6.40;99.90;;;;;;4964813;28;20121;-67
2022/01/22 07:48:09;;;;;;;5.03;0.88;;;6.30;99.90;;;;;;4950733;28;20473;-67
2022/01/22 07:50:35;;;;;;;6.83;1.23;;;6.30;99.90;;;;;;4940754;28;20050;-66
2022/01/22 07:53:02;;;;;;;5.30;1.60;;;6.30;99.90;;;;;;4959619;28;20078;-67
2022/01/22 07:55:28;;;;;;;5.97;1.25;;;6.30;99.90;;;;;;4958614;28;20043;-66
2022/01/22 07:57:54;;;;;;;10.15;1.17;;;6.40;99.90;;;;;;4956358;28;20039;-67
2022/01/22 08:00:19;;;;;;;6.33;0.70;;;6.40;99.90;;;;;;4966050;28;20057;-67
2022/01/22 08:02:45;;;;;;;3.87;1.10;;;6.40;99.90;;;;;;4945426;28;20038;-67
2022/01/22 08:05:12;;;;;;;5.18;0.90;;;6.40;99.90;;;;;;4968146;28;20546;-67
2022/01/22 08:07:39;;;;;;;7.90;1.30;;;6.40;99.90;;;;;;4965569;28;20066;-66
2022/01/22 08:10:10;;;;;;;7.15;1.33;;;6.40;99.90;;;;;;4967090;28;20038;-66
2022/01/22 08:12:37;;;;;;;5.45;0.88;;;6.40;99.90;;;;;;4970583;28;20520;-67
2022/01/22 08:15:04;;;;;;;8.10;1.52;;;6.40;99.90;;;;;;4946715;28;20283;-66
2022/01/22 08:17:30;;;;;;;7.88;1.17;;;6.40;99.90;;;;;;4962569;28;20182;-66
2022/01/22 08:19:56;;;;;;;8.87;1.67;;;6.40;99.90;;;;;;4970349;28;20130;-67
2022/01/22 08:22:21;;;;;;;6.77;1.83;;;6.40;99.90;;;;;;4965347;28;20432;-67
2022/01/22 08:24:47;;;;;;;10.60;1.57;;;6.40;99.90;;;;;;4959266;28;20043;-67
2022/01/22 08:27:31;;;;;;;13.47;1.80;;;6.50;99.90;;;;;;4959450;28;20058;-67
2022/01/22 08:29:58;;;;;;;5.18;2.00;;;6.40;99.90;;;;;;4936978;28;20078;-67
2022/01/22 08:37:37;;;;;;;12.20;2.58;;;6.50;99.90;;;;;;4966029;28;20042;-68
2022/01/22 08:40:08;;;;;;;4.72;1.65;;;6.50;99.90;;;;;;4959965;28;20495;-67
2022/01/22 08:42:34;;;;;;;3.78;1.20;;;6.50;99.90;;;;;;4963306;28;20085;-66
2022/01/22 08:44:59;;;;;;;12.17;1.27;;;6.50;99.90;;;;;;4959736;28;20230;-68
2022/01/22 08:47:25;;;;;;;6.27;1.10;;;6.50;99.90;;;;;;4949345;28;21548;-68
2022/01/22 08:49:50;;;;;;;11.80;1.50;;;6.50;99.90;;;;;;4936844;28;20129;-69
2022/01/22 08:52:18;;;;;;;6.53;1.90;;;6.50;99.90;;;;;;4944586;28;20511;-68
2022/01/22 08:54:45;;;;;;;9.68;2.33;;;6.50;99.90;;;;;;4964210;28;20050;-69
2022/01/22 08:57:11;;;;;;;10.20;2.60;;;6.60;99.90;;;;;;4975376;28;20512;-67
2022/01/22 08:59:37;;;;;;;6.28;1.75;;;6.60;99.90;;;;;;4996507;23;20133;-87
2022/01/22 09:02:04;;;;;;;5.50;1.42;;;6.60;99.90;;;;;;4983562;28;20085;-84
2022/01/22 09:04:31;;;;;;;6.75;1.20;;;6.60;99.90;;;;;;4976113;28;20082;-84
2022/01/22 09:06:57;;;;;;;11.25;1.67;;;6.60;99.90;;;;;;4973744;28;20117;-84
2022/01/22 09:09:23;;;;;;;12.43;1.88;;;6.60;99.90;;;;;;4986122;23;20078;-69
2022/01/22 09:11:49;;;;;;;5.50;1.83;;;6.60;99.90;;;;;;4948081;28;20039;-70
2022/01/22 09:14:16;;;;;;;4.27;1.13;;;6.70;99.90;;;;;;4963402;28;20053;-70
2022/01/22 09:16:44;;;;;;;8.13;1.55;;;6.60;99.90;;;;;;4955728;28;20042;-70
2022/01/22 09:19:11;;;;;;;7.70;1.35;;;6.70;99.90;;;;;;4965797;28;20046;-70
2022/01/22 09:21:43;;;;;;;7.53;1.63;;;6.70;99.90;;;;;;4963820;28;20610;-70
2022/01/22 09:24:09;;;;;;;8.95;1.42;;;6.70;99.90;;;;;;4965569;28;20095;-70
2022/01/22 09:26:35;;;;;;;10.32;1.83;;;6.70;99.90;;;;;;4971709;28;20043;-70
2022/01/22 09:29:01;;;;;;;11.23;3.13;;;6.80;99.90;;;;;;4965349;28;20031;-70
2022/01/22 09:31:28;;;;;;;10.30;1.23;;;6.80;99.90;;;;;;4970804;28;20703;-70
2022/01/22 09:33:56;;;;;;;10.43;1.67;;;6.80;99.90;;;;;;4967370;28;20049;-70
2022/01/22 09:36:22;;;;;;;7.28;1.48;;;6.80;99.90;;;;;;4971759;28;20542;-70
2022/01/22 09:38:49;;;;;;;10.50;1.77;;;6.90;99.90;;;;;;4970102;28;20047;-70
2022/01/22 09:41:15;;;;;;;10.20;1.27;;;6.90;99.90;;;;;;4971483;28;20038;-70
2022/01/22 09:43:41;;;;;;;8.43;1.70;;;6.90;99.90;;;;;;4965850;28;20149;-70
2022/01/22 09:46:11;;;;;;;14.83;2.83;;;6.90;99.90;;;;;;4966467;28;20125;-70
2022/01/22 09:48:44;;;;;;;5.68;1.67;;;6.90;99.90;;;;;;4976799;28;20516;-70
2022/01/22 09:51:11;;;;;;;7.43;2.58;;;6.90;99.90;;;;;;4965854;28;20049;-70
2022/01/22 09:53:40;;;;;;;7.07;1.50;;;6.90;99.90;;;;;;4962971;28;20043;-70
2022/01/22 09:56:06;;;;;;;4.05;1.20;;;7.00;99.90;;;;;;4969492;28;20054;-70
2022/01/22 09:58:32;;;;;;;4.85;1.20;;;7.00;99.90;;;;;;4966269;28;20430;-70
2022/01/22 10:01:21;;;;;;;7.90;1.50;;;7.00;99.90;;;;;;4969900;28;20134;-66
2022/01/22 10:03:48;;;;;;;3.60;1.25;;;7.00;99.90;;;;;;4969105;28;20039;-68
2022/01/22 10:06:17;;;;;;;;;;;7.10;99.90;;;;;;4972271;28;20042;-68
2022/01/22 10:08:43;;;;;;;10.07;2.20;;;7.10;99.90;;;;;;4969055;28;19918;-73
2022/01/22 10:11:17;;;;;;;5.37;1.00;;;7.10;99.90;;;;;;4965298;28;20563;-68
2022/01/22 10:13:58;;;;;;;5.03;1.20;;;7.00;99.90;;;;;;4967089;28;20125;-68
2022/01/22 10:16:28;;;;;;;5.97;1.17;;;7.10;99.90;;;;;;4971153;28;20529;-68
2022/01/22 10:19:16;;;;;;;4.70;1.38;;;7.10;99.90;;;;;;4973856;28;20417;-68
2022/01/22 10:21:57;;;;;;;11.10;1.77;;;7.20;99.90;;;;;;4971584;28;20049;-68
2022/01/22 10:24:34;;;;;;;10.85;2.50;;;7.10;99.90;;;;;;4967227;28;20078;-69
2022/01/22 10:27:44;;;;;;;9.13;1.65;;;7.10;99.90;;;;;;4969153;28;20054;-68
2022/01/22 10:30:21;;;;;;;9.57;1.85;;;7.20;99.90;;;;;;4978020;28;20051;-68
2022/01/22 10:32:52;;;;;;;6.72;1.80;;;7.10;99.90;;;;;;4973953;28;20039;-69
2022/01/22 10:35:23;;;;;;;5.43;1.98;;;7.10;99.90;;;;;;4950059;28;20039;-67
2022/01/22 10:37:54;;;;;;;6.95;1.70;;;7.10;99.90;;;;;;4966348;28;20046;-66
2022/01/22 10:40:31;;;;;;;5.38;1.58;;;7.20;99.90;;;;;;4970341;28;20042;-66
2022/01/22 10:43:16;;;;;;;;;;;7.20;99.90;;;;;;4963129;28;20058;-66
2022/01/22 10:46:08;;;;;;;5.22;1.90;;;7.20;99.90;;;;;;4968229;28;20374;-66
2022/01/22 10:48:44;;;;;;;7.60;2.08;;;7.20;99.90;;;;;;4965935;28;20042;-66
2022/01/22 10:51:16;;;;;;;9.15;2.25;;;7.20;99.90;;;;;;4966370;28;20053;-66
2022/01/22 10:53:43;;;;;;;10.65;2.17;;;7.20;99.90;;;;;;4965525;28;20106;-67
2022/01/22 10:56:11;;;;;;;8.77;2.25;;;7.30;99.90;;;;;;4965365;28;20126;-66
2022/01/22 10:58:54;;;;;;;8.35;2.13;;;7.20;99.90;;;;;;4958324;28;20066;-66
2022/01/22 11:01:22;;;;;;;9.75;1.98;;;7.20;99.90;;;;;;4961568;28;20046;-74
2022/01/22 11:04:00;;;;;;;12.40;2.83;;;7.30;99.90;;;;;;4963427;28;20043;-69
2022/01/22 11:06:27;;;;;;;14.63;3.25;;;7.30;99.90;;;;;;4965233;28;20420;-67
2022/01/22 11:08:53;;;;;;;;;;;7.30;99.90;;;;;;4961739;28;20046;-72
2022/01/22 11:11:19;;;;;;;11.65;1.80;;;7.30;99.90;;;;;;4963695;28;20393;-73
2022/01/22 11:13:45;;;;;;;11.47;3.17;;;7.30;99.90;;;;;;4961068;28;20050;-68
2022/01/22 11:16:11;;;;;;;8.80;2.20;;;7.30;99.90;;;;;;4978375;28;20039;-69
2022/01/22 11:18:43;;;;;;;10.52;2.65;;;7.30;99.90;;;;;;4966249;28;20101;-66
2022/01/22 11:21:10;;;;;;;9.30;1.65;;;7.30;99.90;;;;;;4962039;28;20058;-68
2022/01/22 11:23:36;;;;;;;8.27;2.10;;;7.30;99.90;;;;;;4975739;28;20092;-70
2022/01/22 11:26:02;;;;;;;7.10;2.03;;;7.30;99.90;;;;;;4964870;28;20035;-66
2022/01/22 11:28:28;;;;;;;;;;;7.30;99.90;;;;;;4967247;28;20536;-66
2022/01/22 11:30:58;;;;;;;13.70;2.33;;;7.30;99.90;;;;;;4948646;28;19929;-66
2022/01/22 11:33:25;;;;;;;5.00;1.67;;;7.30;99.90;;;;;;4960222;28;20164;-67
2022/01/22 11:36:19;;;;;;;5.25;1.58;;;7.30;99.90;;;;;;4962423;28;20085;-66
2022/01/22 11:38:57;;;;;;;7.22;1.67;;;7.30;99.90;;;;;;4961478;28;20051;-66
2022/01/22 11:41:24;;;;;;;8.73;2.22;;;7.30;99.90;;;;;;4968531;28;20038;-66
2022/01/22 11:44:08;;;;;;;10.35;2.13;;;7.30;99.90;;;;;;4976423;28;20130;-66
2022/01/22 11:46:37;;;;;;;6.07;2.08;;;7.30;99.90;;;;;;4963022;28;20047;-70
2022/01/22 11:49:21;;;;;;;7.65;2.10;;;7.30;99.90;;;;;;4964524;28;20035;-67
2022/01/22 11:51:53;;;;;;;8.77;1.25;;;7.30;99.90;;;;;;4942670;28;20063;-67
2022/01/22 11:54:22;;;;;;;8.90;1.45;;;7.40;99.90;;;;;;4993111;28;20034;-66
2022/01/22 11:56:52;;;;;;;8.05;1.85;;;7.40;99.90;;;;;;4968526;28;20043;-67
2022/01/22 11:59:23;;;;;;;11.55;1.33;;;7.40;99.90;;;;;;4969061;28;20773;-66
2022/01/22 12:01:56;;;;;;;9.25;1.55;;;7.40;99.90;;;;;;4960534;28;20082;-66
2022/01/22 12:04:26;;;;;;;7.45;1.38;;;7.40;99.90;;;;;;4960563;28;20046;-66
2022/01/22 12:07:04;;;;;;;10.95;1.77;;;7.40;99.90;;;;;;4965857;28;20098;-66
2022/01/22 12:09:31;;;;;;;;;;;7.40;99.90;;;;;;4966551;28;20110;-67
2022/01/22 12:14:50;;;;;;;6.35;1.17;;;7.40;99.90;;;;;;4958097;28;20043;-66
2022/01/22 12:17:24;;;;;;;5.95;1.50;;;7.40;99.90;;;;;;4966245;28;20038;-66
2022/01/22 12:20:05;;;;;;;6.25;1.45;;;7.40;99.90;;;;;;4950315;28;20488;-67
2022/01/22 12:22:33;;;;;;;7.00;1.55;;;7.40;99.90;;;;;;4964900;28;20062;-67
2022/01/22 12:25:22;;;;;;;7.78;1.27;;;7.40;99.90;;;;;;4967377;28;20043;-67
2022/01/22 12:27:49;;;;;;;9.35;1.83;;;7.40;99.90;;;;;;4962242;28;20384;-66
2022/01/22 12:30:31;;;;;;;5.80;1.23;;;7.40;99.90;;;;;;4960351;28;20100;-66
2022/01/22 12:32:57;;;;;;;4.10;1.00;;;7.40;99.90;;;;;;4964304;28;20046;-67
2022/01/22 12:35:43;;;;;;;;;;;7.40;99.90;;;;;;4965754;28;20170;-71
2022/01/22 12:38:51;;;;;;;15.45;1.95;;;7.40;99.90;;;;;;4967559;28;19925;-69
2022/01/22 12:44:40;;;;;;;13.90;1.02;;;7.40;99.90;;;;;;4959608;28;20055;-74
2022/01/22 12:47:10;;;;;;;8.20;3.03;;;7.40;99.90;;;;;;4971449;28;20042;-65
2022/01/22 12:49:37;;;;;;;10.70;1.73;;;7.40;99.90;;;;;;4962811;28;20129;-66
2022/01/22 12:52:05;;;;;;;5.70;0.80;;;7.40;99.90;;;;;;4969349;28;20403;-71
2022/01/22 12:54:39;;;;;;;4.05;1.17;;;7.30;99.90;;;;;;4959631;28;20063;-70
2022/01/22 12:57:13;;;;;;;7.68;1.10;;;7.30;99.90;;;;;;4948342;28;20042;-70
2022/01/22 13:00:08;;;;;;;10.45;1.20;;;7.30;99.90;;;;;;4962546;28;20043;-70
2022/01/22 13:02:41;;;;;;;9.18;2.47;;;7.30;99.90;;;;;;4964428;28;20057;-70
2022/01/22 13:05:09;;;;;;;4.32;1.08;;;7.30;99.90;;;;;;4963354;28;20097;-70
2022/01/22 13:07:45;;;;;;;4.97;1.17;;;7.30;99.90;;;;;;4966025;28;20793;-70
2022/01/22 13:10:11;;;;;;;5.60;1.33;;;7.30;99.90;;;;;;4960848;28;20046;-70
2022/01/22 13:12:43;;;;;;;6.87;0.90;;;7.30;99.90;;;;;;4962697;28;20582;-70
2022/01/22 13:15:11;;;;;;;1.85;0.82;;;7.30;99.90;;;;;;4967438;28;20062;-70
2022/01/22 13:17:38;;;;;;;8.63;1.35;;;7.30;99.90;;;;;;4962793;28;20070;-70
2022/01/22 13:20:05;;;;;;;6.00;1.33;;;7.30;99.90;;;;;;4964322;28;20055;-70
2022/01/22 13:22:31;;;;;;;5.05;1.30;;;7.30;99.90;;;;;;4953040;28;20055;-70
2022/01/22 13:25:07;;;;;;;4.23;1.00;;;7.30;99.90;;;;;;4960878;28;20189;-70
2022/01/22 13:27:35;;;;;;;9.57;1.00;;;7.30;99.90;;;;;;4959715;28;20047;-70
2022/01/22 13:30:01;;;;;;;6.03;1.63;;;7.30;99.90;;;;;;4957044;28;20074;-70
2022/01/22 13:32:46;;;;;;;8.45;2.60;;;7.30;99.90;;;;;;4966871;28;20073;-70
2022/01/22 13:40:49;;;;;;;8.80;1.30;;;7.30;99.90;;;;;;4977846;28;20484;-70
2022/01/22 13:49:05;;;;;;;3.25;0.93;;;7.30;99.90;;;;;;4962046;28;20051;-70
2022/01/22 13:51:32;;;;;;;3.65;0.70;;;7.30;99.90;;;;;;4976957;28;20051;-70
2022/01/22 13:54:01;;;;;;;6.10;0.90;;;7.20;99.90;;;;;;4971309;28;20118;-70
2022/01/22 13:56:41;;;;;;;7.85;0.90;;;7.20;99.90;;;;;;4969444;28;20038;-70
2022/01/22 13:59:38;;;;;;;8.27;1.15;;;7.20;99.90;;;;;;4966510;28;20611;-70
2022/01/22 14:04:43;;;;;;;2.42;0.77;;;7.20;99.90;;;;;;4962659;28;20142;-70
2022/01/22 14:07:17;;;;;;;6.53;1.10;;;7.20;99.90;;;;;;4964695;28;20049;-70
2022/01/22 14:09:51;;;;;;;8.27;1.20;;;7.20;99.90;;;;;;4968719;28;20094;-70
2022/01/22 14:12:17;;;;;;;6.15;1.02;;;7.20;99.90;;;;;;4967292;28;20047;-70
2022/01/22 14:15:01;;;;;;;5.45;0.90;;;7.20;99.90;;;;;;4968783;28;20057;-71
2022/01/22 14:17:36;;;;;;;5.20;1.40;;;7.10;99.90;;;;;;4963058;28;20148;-70
2022/01/22 14:20:11;;;;;;;3.72;1.30;;;7.20;99.90;;;;;;4966933;28;20590;-70
2022/01/22 14:22:53;;;;;;;5.32;0.80;;;7.10;99.90;;;;;;4968501;28;20546;-70
2022/01/22 14:25:18;;;;;;;4.97;0.85;;;7.10;99.90;;;;;;4963842;28;20491;-70
2022/01/22 14:28:05;;;;;;;11.53;1.73;;;7.10;99.90;;;;;;4980868;28;20046;-70
2022/01/22 14:30:35;;;;;;;6.30;1.40;;;7.10;99.90;;;;;;4968810;28;20050;-70
2022/01/22 14:33:02;;;;;;;6.82;1.25;;;7.10;99.90;;;;;;4973977;28;20043;-71
2022/01/22 14:35:28;;;;;;;6.25;2.42;;;7.10;99.90;;;;;;4965400;28;20047;-70
2022/01/22 14:37:57;;;;;;;8.27;1.03;;;7.10;99.90;;;;;;4970318;28;20046;-70
2022/01/22 14:45:59;;;;;;;9.27;0.93;;;7.00;99.90;;;;;;4969682;28;20046;-70
2022/01/22 14:48:26;;;;;;;7.47;1.25;;;7.00;99.90;;;;;;4974517;28;20062;-70
2022/01/22 14:50:52;;;;;;;;;;;7.00;99.90;;;;;;4965722;28;20054;-70
2022/01/22 14:53:19;;;;;;;6.47;1.50;;;6.90;99.90;;;;;;4969293;28;19922;-70
2022/01/22 14:55:57;;;;;;;15.75;2.15;;;6.90;99.90;;;;;;4968565;28;20074;-70
2022/01/22 14:58:23;;;;;;;6.60;1.10;;;7.00;99.90;;;;;;4981154;23;20042;-69
2022/01/22 15:00:51;;;;;;;11.82;1.58;;;7.00;99.90;;;;;;4967070;28;20034;-69
2022/01/22 15:03:16;;;;;;;5.57;0.80;;;7.00;99.90;;;;;;4965335;28;20121;-69